createdAt,value
2018-02-27T00:00:29.597Z,1016.7
2018-02-27T00:01:29.569Z,1016.72
2018-02-27T00:02:29.540Z,1016.7
2018-02-27T00:03:29.513Z,1016.68
2018-02-27T00:04:29.483Z,1016.66
2018-02-27T00:05:29.456Z,1016.67
2018-02-27T00:06:29.427Z,1016.69
2018-02-27T00:07:29.400Z,1016.7
2018-02-27T00:08:29.371Z,1016.72
2018-02-27T00:09:29.343Z,1016.69
2018-02-27T00:10:29.315Z,1016.66
2018-02-27T00:11:29.288Z,1016.7
2018-02-27T00:12:29.257Z,1016.72
2018-02-27T00:13:29.230Z,1016.73
2018-02-27T00:14:29.202Z,1016.73
2018-02-27T00:15:29.173Z,1016.72
2018-02-27T00:16:29.153Z,1016.67
2018-02-27T00:17:29.118Z,1016.73
2018-02-27T00:18:29.090Z,1016.74
2018-02-27T00:19:29.063Z,1016.72
2018-02-27T00:20:29.033Z,1016.73
2018-02-27T00:21:29.005Z,1016.71
2018-02-27T00:22:28.975Z,1016.68
2018-02-27T00:23:28.948Z,1016.71
2018-02-27T00:24:28.920Z,1016.67
2018-02-27T00:25:28.896Z,1016.71
2018-02-27T00:26:28.865Z,1016.74
2018-02-27T00:27:28.837Z,1016.71
2018-02-27T00:28:28.805Z,1016.71
2018-02-27T00:29:28.779Z,1016.69
2018-02-27T00:30:28.750Z,1016.64
2018-02-27T00:31:28.723Z,1016.66
2018-02-27T00:32:28.700Z,1016.69
2018-02-27T00:33:28.669Z,1016.7
2018-02-27T00:34:28.636Z,1016.71
2018-02-27T00:35:28.617Z,1016.67
2018-02-27T00:36:28.582Z,1016.65
2018-02-27T00:37:28.553Z,1016.7
2018-02-27T00:38:28.525Z,1016.69
2018-02-27T00:39:28.495Z,1016.73
2018-02-27T00:40:28.474Z,1016.68
2018-02-27T00:41:28.442Z,1016.72
2018-02-27T00:42:28.412Z,1016.67
2018-02-27T00:43:28.386Z,1016.69
2018-02-27T00:44:28.354Z,1016.68
2018-02-27T00:45:28.326Z,1016.63
2018-02-27T00:46:28.298Z,1016.67
2018-02-27T00:47:28.270Z,1016.66
2018-02-27T00:48:28.244Z,1016.63
2018-02-27T00:49:28.217Z,1016.65
2018-02-27T00:50:28.184Z,1016.61
2018-02-27T00:51:28.158Z,1016.63
2018-02-27T00:52:28.131Z,1016.64
2018-02-27T00:53:28.101Z,1016.64
2018-02-27T00:54:28.075Z,1016.64
2018-02-27T00:55:28.043Z,1016.59
2018-02-27T00:56:28.014Z,1016.59
2018-02-27T00:57:27.986Z,1016.64
2018-02-27T00:58:27.959Z,1016.65
2018-02-27T00:59:27.932Z,1016.65
2018-02-27T01:00:27.901Z,1016.68
2018-02-27T01:01:27.874Z,1016.67
2018-02-27T01:02:27.845Z,1016.65
2018-02-27T01:03:27.817Z,1016.66
2018-02-27T01:04:27.791Z,1016.6
2018-02-27T01:05:27.762Z,1016.63
2018-02-27T01:06:27.733Z,1016.62
2018-02-27T01:07:27.705Z,1016.61
2018-02-27T01:08:27.677Z,1016.59
2018-02-27T01:09:27.646Z,1016.56
2018-02-27T01:10:27.619Z,1016.56
2018-02-27T01:11:27.590Z,1016.58
2018-02-27T01:12:27.562Z,1016.54
2018-02-27T01:13:27.574Z,1016.56
2018-02-27T01:14:27.504Z,1016.55
2018-02-27T01:15:27.478Z,1016.52
2018-02-27T01:16:27.448Z,1016.52
2018-02-27T01:17:27.424Z,1016.53
2018-02-27T01:18:27.392Z,1016.53
2018-02-27T01:19:27.362Z,1016.48
2018-02-27T01:20:27.335Z,1016.51
2018-02-27T01:21:27.306Z,1016.49
2018-02-27T01:22:27.482Z,1016.5
2018-02-27T01:23:27.249Z,1016.46
2018-02-27T01:24:27.222Z,1016.48
2018-02-27T01:25:27.192Z,1016.45
2018-02-27T01:26:27.164Z,1016.47
2018-02-27T01:27:27.136Z,1016.48
2018-02-27T01:28:27.112Z,1016.45
2018-02-27T01:29:27.076Z,1016.47
2018-02-27T01:30:27.049Z,1016.43
2018-02-27T01:31:27.022Z,1016.44
2018-02-27T01:32:26.994Z,1016.42
2018-02-27T01:33:26.969Z,1016.44
2018-02-27T01:34:26.936Z,1016.44
2018-02-27T01:35:26.907Z,1016.44
2018-02-27T01:36:26.877Z,1016.39
2018-02-27T01:37:26.850Z,1016.39
2018-02-27T01:38:26.821Z,1016.39
2018-02-27T01:39:26.793Z,1016.35
2018-02-27T01:40:26.767Z,1016.35
2018-02-27T01:41:26.737Z,1016.4
2018-02-27T01:42:26.708Z,1016.39
2018-02-27T01:43:26.680Z,1016.4
2018-02-27T01:44:26.649Z,1016.37
2018-02-27T01:45:26.620Z,1016.31
2018-02-27T01:46:26.592Z,1016.32
2018-02-27T01:47:26.563Z,1016.27
2018-02-27T01:48:26.535Z,1016.29
2018-02-27T01:49:26.511Z,1016.29
2018-02-27T01:50:26.479Z,1016.25
2018-02-27T01:51:26.448Z,1016.24
2018-02-27T01:52:26.420Z,1016.19
2018-02-27T01:53:26.409Z,1016.21
2018-02-27T01:54:26.377Z,1016.19
2018-02-27T01:55:26.335Z,1016.19
2018-02-27T01:56:26.307Z,1016.16
2018-02-27T01:57:26.277Z,1016.14
2018-02-27T01:58:26.251Z,1016.12
2018-02-27T01:59:26.219Z,1016.12
2018-02-27T02:00:26.190Z,1016.12
2018-02-27T02:01:26.162Z,1016.1
2018-02-27T02:02:26.132Z,1016.12
2018-02-27T02:03:26.104Z,1016.15
2018-02-27T02:04:26.077Z,1016.1
2018-02-27T02:05:26.046Z,1016.11
2018-02-27T02:06:26.018Z,1016.08
2018-02-27T02:07:25.987Z,1016.09
2018-02-27T02:08:25.962Z,1016.09
2018-02-27T02:09:25.932Z,1016.09
2018-02-27T02:10:25.906Z,1016.08
2018-02-27T02:11:25.886Z,1016.1
2018-02-27T02:12:25.847Z,1016.08
2018-02-27T02:13:25.817Z,1016.05
2018-02-27T02:14:25.788Z,1016.02
2018-02-27T02:15:25.761Z,1016.01
2018-02-27T02:16:25.732Z,1016.02
2018-02-27T02:17:25.703Z,1015.98
2018-02-27T02:18:25.674Z,1015.95
2018-02-27T02:19:25.645Z,1015.97
2018-02-27T02:20:25.614Z,1015.93
2018-02-27T02:21:25.587Z,1015.94
2018-02-27T02:22:25.558Z,1015.93
2018-02-27T02:23:25.531Z,1015.87
2018-02-27T02:24:25.498Z,1015.93
2018-02-27T02:25:25.472Z,1015.87
2018-02-27T02:26:25.443Z,1015.89
2018-02-27T02:27:25.414Z,1015.86
2018-02-27T02:28:25.386Z,1015.86
2018-02-27T02:29:25.355Z,1015.83
2018-02-27T02:30:25.328Z,1015.86
2018-02-27T02:31:25.297Z,1015.84
2018-02-27T02:32:25.270Z,1015.82
2018-02-27T02:33:25.242Z,1015.79
2018-02-27T02:34:25.210Z,1015.79
2018-02-27T02:35:25.186Z,1015.78
2018-02-27T02:36:25.154Z,1015.78
2018-02-27T02:37:25.125Z,1015.78
2018-02-27T02:38:25.098Z,1015.78
2018-02-27T02:39:25.070Z,1015.83
2018-02-27T02:40:25.038Z,1015.79
2018-02-27T02:41:25.011Z,1015.82
2018-02-27T02:42:24.980Z,1015.79
2018-02-27T02:43:24.950Z,1015.75
2018-02-27T02:44:24.922Z,1015.75
2018-02-27T02:45:24.896Z,1015.76
2018-02-27T02:46:24.865Z,1015.75
2018-02-27T02:47:24.836Z,1015.74
2018-02-27T02:48:24.808Z,1015.74
2018-02-27T02:49:24.776Z,1015.73
2018-02-27T02:50:24.749Z,1015.7
2018-02-27T02:51:24.720Z,1015.68
2018-02-27T02:52:24.693Z,1015.69
2018-02-27T02:53:24.661Z,1015.67
2018-02-27T02:54:24.631Z,1015.68
2018-02-27T02:55:24.601Z,1015.65
2018-02-27T02:56:24.574Z,1015.67
2018-02-27T02:57:24.544Z,1015.64
2018-02-27T02:58:24.516Z,1015.65
2018-02-27T02:59:24.486Z,1015.58
2018-02-27T03:00:24.457Z,1015.63
2018-02-27T03:01:24.430Z,1015.62
2018-02-27T03:02:24.398Z,1015.63
2018-02-27T03:03:24.370Z,1015.61
2018-02-27T03:04:24.341Z,1015.62
2018-02-27T03:05:24.311Z,1015.62
2018-02-27T03:06:24.282Z,1015.59
2018-02-27T03:07:24.256Z,1015.6
2018-02-27T03:08:24.232Z,1015.6
2018-02-27T03:09:24.196Z,1015.57
2018-02-27T03:10:24.166Z,1015.55
2018-02-27T03:11:24.140Z,1015.57
2018-02-27T03:12:24.107Z,1015.55
2018-02-27T03:13:24.083Z,1015.56
2018-02-27T03:14:24.049Z,1015.56
2018-02-27T03:15:24.023Z,1015.54
2018-02-27T03:16:23.990Z,1015.47
2018-02-27T03:17:23.962Z,1015.51
2018-02-27T03:18:23.932Z,1015.48
2018-02-27T03:19:23.903Z,1015.49
2018-02-27T03:20:23.874Z,1015.47
2018-02-27T03:21:23.846Z,1015.48
2018-02-27T03:22:23.814Z,1015.45
2018-02-27T03:23:23.838Z,1015.45
2018-02-27T03:24:23.756Z,1015.43
2018-02-27T03:25:23.729Z,1015.44
2018-02-27T03:26:23.700Z,1015.42
2018-02-27T03:27:23.670Z,1015.38
2018-02-27T03:28:23.640Z,1015.4
2018-02-27T03:29:23.611Z,1015.37
2018-02-27T03:30:23.584Z,1015.39
2018-02-27T03:31:23.555Z,1015.38
2018-02-27T03:32:23.524Z,1015.39
2018-02-27T03:33:23.494Z,1015.41
2018-02-27T03:34:23.467Z,1015.39
2018-02-27T03:35:23.435Z,1015.41
2018-02-27T03:36:23.407Z,1015.42
2018-02-27T03:37:23.377Z,1015.38
2018-02-27T03:38:23.346Z,1015.42
2018-02-27T03:39:23.318Z,1015.42
2018-02-27T03:40:23.289Z,1015.42
2018-02-27T03:41:23.259Z,1015.37
2018-02-27T03:42:23.230Z,1015.38
2018-02-27T03:43:23.201Z,1015.33
2018-02-27T03:44:23.172Z,1015.34
2018-02-27T03:45:23.142Z,1015.33
2018-02-27T03:46:23.113Z,1015.3
2018-02-27T03:47:23.086Z,1015.33
2018-02-27T03:48:23.055Z,1015.3
2018-02-27T03:49:23.026Z,1015.28
2018-02-27T03:50:22.996Z,1015.28
2018-02-27T03:51:22.969Z,1015.29
2018-02-27T03:52:22.938Z,1015.28
2018-02-27T03:53:22.909Z,1015.25
2018-02-27T03:54:22.893Z,1015.26
2018-02-27T03:55:22.850Z,1015.25
2018-02-27T03:56:22.821Z,1015.33
2018-02-27T03:57:22.793Z,1015.26
2018-02-27T03:58:22.766Z,1015.26
2018-02-27T03:59:22.733Z,1015.22
2018-02-27T04:00:22.705Z,1015.24
2018-02-27T04:01:22.691Z,1015.21
2018-02-27T04:02:22.647Z,1015.17
2018-02-27T04:03:22.615Z,1015.22
2018-02-27T04:04:22.587Z,1015.19
2018-02-27T04:05:22.557Z,1015.16
2018-02-27T04:06:22.529Z,1015.18
2018-02-27T04:07:22.499Z,1015.16
2018-02-27T04:08:22.471Z,1015.16
2018-02-27T04:09:22.441Z,1015.15
2018-02-27T04:10:22.411Z,1015.11
2018-02-27T04:11:22.382Z,1015.08
2018-02-27T04:12:22.355Z,1015.14
2018-02-27T04:13:22.324Z,1015.12
2018-02-27T04:14:22.296Z,1015.08
2018-02-27T04:15:22.265Z,1015.15
2018-02-27T04:16:22.249Z,1015.1
2018-02-27T04:17:22.207Z,1015.09
2018-02-27T04:18:22.178Z,1015.1
2018-02-27T04:19:22.149Z,1015.12
2018-02-27T04:20:22.121Z,1015.11
2018-02-27T04:21:22.105Z,1015.12
2018-02-27T04:22:22.077Z,1015.12
2018-02-27T04:23:22.037Z,1015.13
2018-02-27T04:24:22.002Z,1015.14
2018-02-27T04:25:21.973Z,1015.11
2018-02-27T04:26:21.944Z,1015.16
2018-02-27T04:27:21.913Z,1015.15
2018-02-27T04:28:21.883Z,1015.12
2018-02-27T04:29:21.855Z,1015.12
2018-02-27T04:30:21.828Z,1015.14
2018-02-27T04:31:21.798Z,1015.11
2018-02-27T04:32:21.771Z,1015.11
2018-02-27T04:33:21.740Z,1015.14
2018-02-27T04:34:21.710Z,1015.1
2018-02-27T04:35:21.679Z,1015.11
2018-02-27T04:36:21.652Z,1015.12
2018-02-27T04:37:21.620Z,1015.12
2018-02-27T04:38:21.591Z,1015.12
2018-02-27T04:39:21.562Z,1015.1
2018-02-27T04:40:21.532Z,1015.11
2018-02-27T04:41:21.502Z,1015.08
2018-02-27T04:42:21.474Z,1015.08
2018-02-27T04:43:21.444Z,1015.11
2018-02-27T04:44:21.414Z,1015.09
2018-02-27T04:45:21.386Z,1015.12
2018-02-27T04:46:21.360Z,1015.1
2018-02-27T04:47:21.326Z,1015.12
2018-02-27T04:48:21.299Z,1015.1
2018-02-27T04:49:21.274Z,1015.08
2018-02-27T04:50:21.238Z,1015.12
2018-02-27T04:51:21.209Z,1015.11
2018-02-27T04:52:21.179Z,1015.1
2018-02-27T04:53:21.152Z,1015.09
2018-02-27T04:54:21.122Z,1015.12
2018-02-27T04:55:21.093Z,1015.09
2018-02-27T04:56:21.061Z,1015.09
2018-02-27T04:57:21.032Z,1015.09
2018-02-27T04:58:21.002Z,1015.08
2018-02-27T04:59:20.974Z,1015.1
2018-02-27T05:00:20.943Z,1015.08
2018-02-27T05:01:20.913Z,1015.08
2018-02-27T05:02:20.890Z,1015.08
2018-02-27T05:03:20.856Z,1015.07
2018-02-27T05:04:20.824Z,1015.03
2018-02-27T05:05:20.799Z,1015.06
2018-02-27T05:06:20.766Z,1015.05
2018-02-27T05:07:20.738Z,1015.03
2018-02-27T05:08:20.715Z,1015.05
2018-02-27T05:09:20.677Z,1015.05
2018-02-27T05:10:20.650Z,1015.09
2018-02-27T05:11:20.624Z,1015.05
2018-02-27T05:12:20.588Z,1015.1
2018-02-27T05:13:20.560Z,1015.08
2018-02-27T05:14:20.530Z,1015.09
2018-02-27T05:15:20.501Z,1015.14
2018-02-27T05:16:20.526Z,1015.11
2018-02-27T05:17:20.443Z,1015.11
2018-02-27T05:18:20.417Z,1015.13
2018-02-27T05:19:20.384Z,1015.12
2018-02-27T05:20:20.353Z,1015.16
2018-02-27T05:21:20.322Z,1015.16
2018-02-27T05:22:20.296Z,1015.17
2018-02-27T05:23:20.467Z,1015.19
2018-02-27T05:24:20.235Z,1015.19
2018-02-27T05:25:20.204Z,1015.16
2018-02-27T05:26:20.177Z,1015.16
2018-02-27T05:27:20.146Z,1015.15
2018-02-27T05:28:20.117Z,1015.14
2018-02-27T05:29:20.086Z,1015.12
2018-02-27T05:30:20.057Z,1015.1
2018-02-27T05:31:20.028Z,1015.15
2018-02-27T05:32:19.999Z,1015.12
2018-02-27T05:33:19.969Z,1015.08
2018-02-27T05:34:19.937Z,1015.1
2018-02-27T05:35:19.909Z,1015.09
2018-02-27T05:36:19.882Z,1015.07
2018-02-27T05:37:19.850Z,1015.07
2018-02-27T05:38:19.819Z,1015.03
2018-02-27T05:39:19.792Z,1015.04
2018-02-27T05:40:19.761Z,1015.08
2018-02-27T05:41:19.738Z,1015.04
2018-02-27T05:42:19.702Z,1015.03
2018-02-27T05:43:19.673Z,1014.99
2018-02-27T05:44:19.645Z,1015.01
2018-02-27T05:45:19.616Z,1015.01
2018-02-27T05:46:19.589Z,1015.01
2018-02-27T05:47:19.554Z,1014.96
2018-02-27T05:48:19.522Z,1014.94
2018-02-27T05:49:19.495Z,1015.01
2018-02-27T05:50:19.464Z,1014.99
2018-02-27T05:51:19.440Z,1015.01
2018-02-27T05:52:19.404Z,1015.03
2018-02-27T05:53:19.376Z,1014.98
2018-02-27T05:54:19.357Z,1014.99
2018-02-27T05:55:19.317Z,1014.97
2018-02-27T05:56:19.288Z,1014.96
2018-02-27T05:57:19.258Z,1014.97
2018-02-27T05:58:19.227Z,1015.03
2018-02-27T05:59:19.199Z,1015.01
2018-02-27T06:00:19.170Z,1015
2018-02-27T06:01:19.138Z,1015
2018-02-27T06:02:19.113Z,1014.99
2018-02-27T06:03:19.080Z,1014.97
2018-02-27T06:04:19.050Z,1015.02
2018-02-27T06:05:19.020Z,1015
2018-02-27T06:06:18.990Z,1015
2018-02-27T06:07:18.963Z,1014.98
2018-02-27T06:08:18.933Z,1015.01
2018-02-27T06:09:18.907Z,1015.02
2018-02-27T06:10:18.870Z,1015.01
2018-02-27T06:11:18.841Z,1015.06
2018-02-27T06:12:18.813Z,1015.06
2018-02-27T06:13:18.782Z,1015.06
2018-02-27T06:14:18.753Z,1015.09
2018-02-27T06:15:18.723Z,1015.07
2018-02-27T06:16:18.692Z,1015.02
2018-02-27T06:17:18.664Z,1015.06
2018-02-27T06:18:18.636Z,1015.07
2018-02-27T06:19:18.606Z,1015.13
2018-02-27T06:20:18.574Z,1015.08
2018-02-27T06:21:18.544Z,1015.13
2018-02-27T06:22:18.514Z,1015.11
2018-02-27T06:23:18.485Z,1015.12
2018-02-27T06:24:18.456Z,1015.11
2018-02-27T06:25:18.424Z,1015.15
2018-02-27T06:26:18.396Z,1015.12
2018-02-27T06:27:18.364Z,1015.15
2018-02-27T06:28:18.337Z,1015.16
2018-02-27T06:29:18.305Z,1015.16
2018-02-27T06:30:18.285Z,1015.15
2018-02-27T06:31:18.252Z,1015.18
2018-02-27T06:32:18.216Z,1015.14
2018-02-27T06:33:18.186Z,1015.15
2018-02-27T06:34:18.158Z,1015.17
2018-02-27T06:35:18.179Z,1015.15
2018-02-27T06:36:18.100Z,1015.18
2018-02-27T06:37:18.070Z,1015.15
2018-02-27T06:38:18.038Z,1015.21
2018-02-27T06:39:18.010Z,1015.21
2018-02-27T06:40:17.979Z,1015.27
2018-02-27T06:41:17.949Z,1015.28
2018-02-27T06:42:17.922Z,1015.28
2018-02-27T06:43:17.891Z,1015.3
2018-02-27T06:44:17.860Z,1015.29
2018-02-27T06:45:17.831Z,1015.26
2018-02-27T06:46:17.801Z,1015.28
2018-02-27T06:47:17.770Z,1015.31
2018-02-27T06:48:17.742Z,1015.35
2018-02-27T06:49:17.713Z,1015.32
2018-02-27T06:50:17.681Z,1015.33
2018-02-27T06:51:17.652Z,1015.31
2018-02-27T06:52:17.622Z,1015.34
2018-02-27T06:53:17.593Z,1015.33
2018-02-27T06:54:17.569Z,1015.31
2018-02-27T06:55:17.582Z,1015.32
2018-02-27T06:56:17.505Z,1015.32
2018-02-27T06:57:17.475Z,1015.28
2018-02-27T06:58:17.446Z,1015.29
2018-02-27T06:59:17.414Z,1015.26
2018-02-27T07:00:17.385Z,1015.19
2018-02-27T07:01:17.357Z,1015.22
2018-02-27T07:02:17.327Z,1015.23
2018-02-27T07:03:17.296Z,1015.2
2018-02-27T07:04:17.268Z,1015.22
2018-02-27T07:05:17.237Z,1015.18
2018-02-27T07:06:17.229Z,1015.26
2018-02-27T07:07:17.190Z,1015.25
2018-02-27T07:08:17.200Z,1015.23
2018-02-27T07:09:17.131Z,1015.23
2018-02-27T07:10:17.144Z,1015.24
2018-02-27T07:11:17.082Z,1015.26
2018-02-27T07:12:17.032Z,1015.29
2018-02-27T07:13:17.001Z,1015.29
2018-02-27T07:14:16.974Z,1015.25
2018-02-27T07:15:16.949Z,1015.28
2018-02-27T07:16:16.914Z,1015.3
2018-02-27T07:17:16.886Z,1015.28
2018-02-27T07:18:16.854Z,1015.27
2018-02-27T07:19:16.827Z,1015.29
2018-02-27T07:20:16.797Z,1015.28
2018-02-27T07:21:16.769Z,1015.3
2018-02-27T07:22:16.738Z,1015.25
2018-02-27T07:23:16.915Z,1015.35
2018-02-27T07:24:16.682Z,1015.31
2018-02-27T07:25:16.651Z,1015.33
2018-02-27T07:26:16.627Z,1015.31
2018-02-27T07:27:16.597Z,1015.31
2018-02-27T07:28:16.565Z,1015.34
2018-02-27T07:29:16.537Z,1015.3
2018-02-27T07:30:16.509Z,1015.23
2018-02-27T07:31:16.482Z,1015.28
2018-02-27T07:32:16.451Z,1015.26
2018-02-27T07:33:16.423Z,1015.26
2018-02-27T07:34:16.394Z,1015.28
2018-02-27T07:35:16.374Z,1015.25
2018-02-27T07:36:16.339Z,1015.31
2018-02-27T07:37:16.312Z,1015.28
2018-02-27T07:38:16.284Z,1015.29
2018-02-27T07:39:16.252Z,1015.29
2018-02-27T07:40:16.225Z,1015.27
2018-02-27T07:41:16.199Z,1015.29
2018-02-27T07:42:16.167Z,1015.35
2018-02-27T07:43:16.141Z,1015.31
2018-02-27T07:44:16.111Z,1015.33
2018-02-27T07:45:16.082Z,1015.34
2018-02-27T07:46:16.054Z,1015.31
2018-02-27T07:47:16.064Z,1015.28
2018-02-27T07:48:16.003Z,1015.31
2018-02-27T07:49:15.971Z,1015.3
2018-02-27T07:50:15.946Z,1015.29
2018-02-27T07:51:15.917Z,1015.35
2018-02-27T07:52:15.887Z,1015.34
2018-02-27T07:53:15.860Z,1015.35
2018-02-27T07:54:15.833Z,1015.38
2018-02-27T07:55:15.803Z,1015.36
2018-02-27T07:56:15.774Z,1015.33
2018-02-27T07:57:15.746Z,1015.39
2018-02-27T07:58:15.720Z,1015.38
2018-02-27T07:59:15.690Z,1015.37
2018-02-27T08:00:15.662Z,1015.32
2018-02-27T08:01:15.634Z,1015.31
2018-02-27T08:02:15.608Z,1015.33
2018-02-27T08:03:15.583Z,1015.29
2018-02-27T08:04:15.594Z,1015.33
2018-02-27T08:05:15.522Z,1015.35
2018-02-27T08:06:15.496Z,1015.33
2018-02-27T08:07:15.467Z,1015.36
2018-02-27T08:08:15.440Z,1015.31
2018-02-27T08:09:15.410Z,1015.35
2018-02-27T08:10:15.384Z,1015.35
2018-02-27T08:11:15.355Z,1015.37
2018-02-27T08:12:15.327Z,1015.36
2018-02-27T08:13:15.300Z,1015.45
2018-02-27T08:14:15.273Z,1015.43
2018-02-27T08:15:15.248Z,1015.41
2018-02-27T08:16:15.238Z,1015.41
2018-02-27T08:17:15.189Z,1015.39
2018-02-27T08:18:15.162Z,1015.39
2018-02-27T08:19:15.141Z,1015.35
2018-02-27T08:20:15.107Z,1015.31
2018-02-27T08:21:15.090Z,1015.3
2018-02-27T08:22:15.052Z,1015.33
2018-02-27T08:23:15.026Z,1015.29
2018-02-27T08:24:15.000Z,1015.32
2018-02-27T08:25:14.974Z,1015.27
2018-02-27T08:26:14.943Z,1015.3
2018-02-27T08:27:14.917Z,1015.31
2018-02-27T08:28:14.894Z,1015.31
2018-02-27T08:29:14.868Z,1015.33
2018-02-27T08:30:14.838Z,1015.33
2018-02-27T08:31:14.811Z,1015.33
2018-02-27T08:32:14.785Z,1015.28
2018-02-27T08:33:14.755Z,1015.3
2018-02-27T08:34:14.731Z,1015.22
2018-02-27T08:35:14.704Z,1015.2
2018-02-27T08:36:14.678Z,1015.28
2018-02-27T08:37:14.652Z,1015.35
2018-02-27T08:38:14.630Z,1015.33
2018-02-27T08:39:14.604Z,1015.34
2018-02-27T08:40:14.571Z,1015.37
2018-02-27T08:41:14.546Z,1015.4
2018-02-27T08:42:14.523Z,1015.47
2018-02-27T08:43:14.502Z,1015.4
2018-02-27T08:44:14.494Z,1015.44
2018-02-27T08:45:14.451Z,1015.36
2018-02-27T08:46:14.427Z,1015.32
2018-02-27T08:47:14.405Z,1015.32
2018-02-27T08:48:14.389Z,1015.34
2018-02-27T08:49:14.362Z,1015.31
2018-02-27T08:50:14.340Z,1015.25
2018-02-27T08:51:14.316Z,1015.24
2018-02-27T08:52:14.294Z,1015.28
2018-02-27T08:53:14.275Z,1015.27
2018-02-27T08:54:14.255Z,1015.25
2018-02-27T08:55:14.231Z,1015.29
2018-02-27T08:56:14.216Z,1015.3
2018-02-27T08:57:14.241Z,1015.28
2018-02-27T08:58:14.174Z,1015.32
2018-02-27T08:59:14.153Z,1015.24
2018-02-27T09:00:14.134Z,1015.25
2018-02-27T09:01:14.123Z,1015.24
2018-02-27T09:02:14.095Z,1015.15
2018-02-27T09:03:14.080Z,1015.14
2018-02-27T09:04:14.058Z,1015.18
2018-02-27T09:05:14.042Z,1015.1
2018-02-27T09:06:14.022Z,1015.12
2018-02-27T09:07:14.006Z,1015.11
2018-02-27T09:08:13.986Z,1015.04
2018-02-27T09:09:13.968Z,1015.15
2018-02-27T09:10:13.950Z,1015.16
2018-02-27T09:11:13.940Z,1015.16
2018-02-27T09:12:13.913Z,1015.15
2018-02-27T09:13:13.897Z,1015.12
2018-02-27T09:14:13.880Z,1015.11
2018-02-27T09:15:13.862Z,1015.12
2018-02-27T09:16:13.848Z,1015.09
2018-02-27T09:17:13.823Z,1015.1
2018-02-27T09:18:13.806Z,1015.03
2018-02-27T09:19:13.807Z,1015.08
2018-02-27T09:20:13.771Z,1015.01
2018-02-27T09:21:13.751Z,1015.01
2018-02-27T09:22:13.736Z,1014.98
2018-02-27T09:23:13.918Z,1015.01
2018-02-27T09:24:13.694Z,1014.95
2018-02-27T09:25:13.679Z,1014.95
2018-02-27T09:26:13.657Z,1014.99
2018-02-27T09:27:13.641Z,1015
2018-02-27T09:28:13.622Z,1014.98
2018-02-27T09:29:13.601Z,1014.93
2018-02-27T09:30:13.582Z,1014.9
2018-02-27T09:31:13.561Z,1014.94
2018-02-27T09:32:13.542Z,1014.91
2018-02-27T09:33:13.526Z,1014.91
2018-02-27T09:34:13.505Z,1014.85
2018-02-27T09:35:13.486Z,1014.91
2018-02-27T09:36:13.464Z,1014.83
2018-02-27T09:37:13.445Z,1014.82
2018-02-27T09:38:13.429Z,1014.83
2018-02-27T09:39:13.404Z,1014.8
2018-02-27T09:40:13.382Z,1014.75
2018-02-27T09:41:13.362Z,1014.77
2018-02-27T09:42:13.342Z,1014.81
2018-02-27T09:43:13.320Z,1014.75
2018-02-27T09:44:13.299Z,1014.74
2018-02-27T09:45:13.279Z,1014.82
2018-02-27T09:46:13.256Z,1014.77
2018-02-27T09:47:13.245Z,1014.81
2018-02-27T09:48:13.218Z,1014.8
2018-02-27T09:49:13.195Z,1014.83
2018-02-27T09:50:13.174Z,1014.81
2018-02-27T09:51:13.158Z,1014.78
2018-02-27T09:52:13.189Z,1014.85
2018-02-27T09:53:13.117Z,1014.85
2018-02-27T09:54:13.098Z,1014.82
2018-02-27T09:55:13.076Z,1014.83
2018-02-27T09:56:13.055Z,1014.76
2018-02-27T09:57:13.051Z,1014.79
2018-02-27T09:58:13.077Z,1014.79
2018-02-27T09:59:13.024Z,1014.76
2018-02-27T10:00:12.979Z,1014.74
2018-02-27T10:01:12.965Z,1014.76
2018-02-27T10:02:12.954Z,1014.71
2018-02-27T10:03:12.928Z,1014.72
2018-02-27T10:04:12.902Z,1014.71
2018-02-27T10:05:12.885Z,1014.78
2018-02-27T10:06:12.873Z,1014.79
2018-02-27T10:07:12.847Z,1014.76
2018-02-27T10:08:12.828Z,1014.74
2018-02-27T10:09:12.805Z,1014.76
2018-02-27T10:10:12.785Z,1014.74
2018-02-27T10:11:12.767Z,1014.68
2018-02-27T10:12:12.750Z,1014.68
2018-02-27T10:13:12.726Z,1014.69
2018-02-27T10:14:12.708Z,1014.66
2018-02-27T10:15:12.686Z,1014.67
2018-02-27T10:16:12.666Z,1014.7
2018-02-27T10:17:12.668Z,1014.68
2018-02-27T10:18:12.628Z,1014.69
2018-02-27T10:19:12.607Z,1014.7
2018-02-27T10:20:12.587Z,1014.65
2018-02-27T10:21:12.565Z,1014.68
2018-02-27T10:22:12.552Z,1014.66
2018-02-27T10:23:12.523Z,1014.7
2018-02-27T10:24:12.505Z,1014.63
2018-02-27T10:25:12.485Z,1014.66
2018-02-27T10:26:12.466Z,1014.69
2018-02-27T10:27:12.445Z,1014.7
2018-02-27T10:28:12.424Z,1014.65
2018-02-27T10:29:12.404Z,1014.66
2018-02-27T10:30:12.381Z,1014.64
2018-02-27T10:31:12.363Z,1014.65
2018-02-27T10:32:12.342Z,1014.64
2018-02-27T10:33:12.322Z,1014.6
2018-02-27T10:34:12.301Z,1014.55
2018-02-27T10:35:12.283Z,1014.61
2018-02-27T10:36:12.261Z,1014.63
2018-02-27T10:37:12.239Z,1014.6
2018-02-27T10:38:12.217Z,1014.57
2018-02-27T10:39:12.198Z,1014.57
2018-02-27T10:40:12.180Z,1014.6
2018-02-27T10:41:12.155Z,1014.53
2018-02-27T10:42:12.134Z,1014.56
2018-02-27T10:43:12.113Z,1014.53
2018-02-27T10:44:12.096Z,1014.52
2018-02-27T10:45:12.070Z,1014.52
2018-02-27T10:46:12.051Z,1014.48
2018-02-27T10:47:12.031Z,1014.57
2018-02-27T10:48:12.013Z,1014.55
2018-02-27T10:49:11.991Z,1014.52
2018-02-27T10:50:11.972Z,1014.51
2018-02-27T10:51:11.952Z,1014.48
2018-02-27T10:52:11.933Z,1014.53
2018-02-27T10:53:11.915Z,1014.51
2018-02-27T10:54:11.893Z,1014.51
2018-02-27T10:55:11.872Z,1014.5
2018-02-27T10:56:11.856Z,1014.47
2018-02-27T10:57:11.840Z,1014.42
2018-02-27T10:58:11.823Z,1014.4
2018-02-27T10:59:11.800Z,1014.39
2018-02-27T11:00:11.781Z,1014.4
2018-02-27T11:01:11.766Z,1014.4
2018-02-27T11:02:11.751Z,1014.75
2018-02-27T11:03:11.726Z,1014.69
2018-02-27T11:04:11.708Z,1014.68
2018-02-27T11:05:11.689Z,1014.7
2018-02-27T11:06:11.672Z,1014.73
2018-02-27T11:07:11.654Z,1014.79
2018-02-27T11:08:11.636Z,1014.74
2018-02-27T11:09:11.618Z,1014.67
2018-02-27T11:10:11.601Z,1014.65
2018-02-27T11:11:11.584Z,1014.71
2018-02-27T11:12:11.566Z,1014.71
2018-02-27T11:13:11.549Z,1014.43
2018-02-27T11:14:11.532Z,1014.41
2018-02-27T11:15:11.519Z,1014.23
2018-02-27T11:16:11.499Z,1014.2
2018-02-27T11:17:11.480Z,1014.25
2018-02-27T11:18:11.463Z,1014.19
2018-02-27T11:19:11.445Z,1014.22
2018-02-27T11:20:11.436Z,1014.23
2018-02-27T11:21:11.412Z,1014.22
2018-02-27T11:22:11.395Z,1014.19
2018-02-27T11:23:11.581Z,1014.24
2018-02-27T11:24:11.363Z,1014.2
2018-02-27T11:25:11.344Z,1014.27
2018-02-27T11:26:11.328Z,1014.22
2018-02-27T11:27:11.311Z,1014.2
2018-02-27T11:28:11.295Z,1014.26
2018-02-27T11:29:11.329Z,1014.14
2018-02-27T11:30:11.264Z,1014.17
2018-02-27T11:31:11.249Z,1014.18
2018-02-27T11:32:11.231Z,1014.07
2018-02-27T11:33:11.215Z,1014.14
2018-02-27T11:34:11.272Z,1014.11
2018-02-27T11:35:11.186Z,1014.05
2018-02-27T11:36:11.172Z,1014.06
2018-02-27T11:37:11.154Z,1014.03
2018-02-27T11:38:11.141Z,1014
2018-02-27T11:39:11.126Z,1013.98
2018-02-27T11:40:11.109Z,1013.99
2018-02-27T11:41:11.094Z,1014
2018-02-27T11:42:11.076Z,1013.95
2018-02-27T11:43:11.056Z,1013.96
2018-02-27T11:44:11.037Z,1013.98
2018-02-27T11:45:11.021Z,1013.93
2018-02-27T11:46:11.004Z,1013.91
2018-02-27T11:47:10.987Z,1013.91
2018-02-27T11:48:10.968Z,1013.97
2018-02-27T11:49:10.950Z,1013.91
2018-02-27T11:50:10.935Z,1013.83
2018-02-27T11:51:10.913Z,1013.84
2018-02-27T11:52:10.906Z,1013.88
2018-02-27T11:53:10.877Z,1013.84
2018-02-27T11:54:10.858Z,1013.83
2018-02-27T11:55:10.839Z,1013.85
2018-02-27T11:56:10.818Z,1013.81
2018-02-27T11:57:10.803Z,1013.82
2018-02-27T11:58:10.782Z,1013.8
2018-02-27T11:59:10.758Z,1013.84
2018-02-27T12:00:10.738Z,1013.86
2018-02-27T12:01:10.719Z,1013.86
2018-02-27T12:02:10.697Z,1013.82
2018-02-27T12:03:10.677Z,1013.78
2018-02-27T12:04:10.657Z,1013.79
2018-02-27T12:05:10.636Z,1013.74
2018-02-27T12:06:10.615Z,1013.82
2018-02-27T12:07:10.593Z,1013.69
2018-02-27T12:08:10.577Z,1013.71